Time;durP1;ratioP1;P1;durP2;ratioP2;P2;SDS_P1;SDS_P2;PMS_P1;PMS_P2;Temp;Humidity;BMP_temperature;BMP_pressure;BME280_temperature;BME280_humidity;BME280_pressure;Samples;Min_cycle;Max_cycle;Signal;HPM_P1;HPM_P2
2021/10/01 00:01:21;;;;;;;7.07;1.70;;;14.20;99.90;;;;;;5051057;28;20898;-91
2021/10/01 00:03:48;;;;;;;3.80;1.40;;;14.20;99.90;;;;;;5037337;28;20943;-90
2021/10/01 00:06:15;;;;;;;3.07;1.50;;;14.30;99.90;;;;;;5034296;28;20203;-93
2021/10/01 00:08:43;;;;;;;5.37;1.77;;;14.30;99.90;;;;;;5036082;28;20194;-88
2021/10/01 00:11:10;;;;;;;6.80;2.23;;;14.30;99.90;;;;;;5037156;28;20733;-84
2021/10/01 00:13:38;;;;;;;7.67;1.70;;;14.30;99.90;;;;;;5034511;28;20772;-90
2021/10/01 00:16:06;;;;;;;8.70;1.70;;;14.40;99.90;;;;;;5054349;28;20967;-92
2021/10/01 00:18:33;;;;;;;5.40;1.93;;;14.40;99.90;;;;;;5054416;28;20206;-90
2021/10/01 00:21:00;;;;;;;4.57;1.40;;;14.40;99.90;;;;;;5053072;28;20528;-91
2021/10/01 00:23:27;;;;;;;7.33;2.00;;;14.30;99.90;;;;;;5033141;28;20202;-91
2021/10/01 00:25:55;;;;;;;2.17;1.27;;;14.30;99.90;;;;;;5034762;28;20208;-89
2021/10/01 00:28:22;;;;;;;6.43;1.97;;;14.30;99.90;;;;;;5034883;28;20221;-92
2021/10/01 00:30:49;;;;;;;5.43;1.50;;;14.30;99.90;;;;;;5035416;28;20218;-90
2021/10/01 00:33:17;;;;;;;5.50;1.93;;;14.30;99.90;;;;;;5034290;28;20230;-89
2021/10/01 00:35:44;;;;;;;2.53;1.50;;;14.30;99.90;;;;;;5049681;28;20209;-93
2021/10/01 00:38:11;;;;;;;3.07;1.97;;;14.30;99.90;;;;;;5055249;28;20206;-89
2021/10/01 00:40:38;;;;;;;5.43;1.50;;;14.30;99.90;;;;;;5054958;28;20221;-92
2021/10/01 00:43:06;;;;;;;5.93;1.63;;;14.30;99.90;;;;;;5045393;28;20213;-90
2021/10/01 00:45:33;;;;;;;9.67;2.37;;;14.30;99.90;;;;;;5035140;28;20204;-90
2021/10/01 00:48:00;;;;;;;7.07;1.90;;;14.30;99.90;;;;;;5036900;28;20218;-90
2021/10/01 00:50:28;;;;;;;4.37;1.60;;;14.30;99.90;;;;;;5042046;28;20218;-91
2021/10/01 00:52:54;;;;;;;4.47;1.53;;;14.30;99.90;;;;;;5034407;28;20633;-91
2021/10/01 00:55:21;;;;;;;6.07;1.60;;;14.30;99.90;;;;;;5041397;28;20233;-89
2021/10/01 00:57:48;;;;;;;6.37;1.70;;;14.30;99.90;;;;;;5052837;28;20210;-93
2021/10/01 01:00:26;;;;;;;4.13;1.67;;;14.30;99.90;;;;;;5053428;28;20222;-90
2021/10/01 01:02:54;;;;;;;6.83;2.10;;;14.30;99.90;;;;;;5053507;28;20201;-94
2021/10/01 01:05:25;;;;;;;5.53;1.73;;;14.40;99.90;;;;;;5052813;28;20193;-94
2021/10/01 01:07:57;;;;;;;6.43;1.50;;;14.40;99.90;;;;;;5065931;28;20574;-94
2021/10/01 01:10:36;;;;;;;7.77;1.80;;;14.30;99.90;;;;;;5053137;28;20551;-91
2021/10/01 01:13:10;;;;;;;8.50;1.67;;;14.30;99.90;;;;;;5053007;28;20208;-91
2021/10/01 01:15:45;;;;;;;4.67;1.73;;;14.30;99.90;;;;;;5048865;28;20209;-91
2021/10/01 01:18:16;;;;;;;5.57;1.40;;;14.30;99.90;;;;;;5048761;28;20213;-92
2021/10/01 01:20:48;;;;;;;5.27;1.60;;;14.20;99.90;;;;;;5051016;28;20221;-92
2021/10/01 01:23:54;;;;;;;4.47;1.60;;;14.30;99.90;;;;;;5057321;28;20764;-93
2021/10/01 01:26:40;;;;;;;4.33;1.60;;;14.20;99.90;;;;;;5066981;28;20205;-91
2021/10/01 01:29:21;;;;;;;3.13;1.30;;;14.20;99.90;;;;;;5073469;28;20201;-92
2021/10/01 01:31:58;;;;;;;4.00;1.63;;;14.20;99.90;;;;;;5068833;28;20291;-89
2021/10/01 01:34:33;;;;;;;4.23;1.47;;;14.20;99.90;;;;;;5069792;28;20305;-91
2021/10/01 01:37:05;;;;;;;5.80;1.57;;;14.30;99.90;;;;;;5072868;28;20678;-87
2021/10/01 01:39:35;;;;;;;7.70;1.73;;;14.20;99.90;;;;;;5075564;28;20241;-89
2021/10/01 01:42:03;;;;;;;7.70;1.80;;;14.20;99.90;;;;;;5071819;28;20204;-92
2021/10/01 01:44:31;;;;;;;5.87;1.60;;;14.20;99.90;;;;;;5052471;28;20202;-91
2021/10/01 01:46:59;;;;;;;6.50;1.50;;;14.20;99.90;;;;;;5053680;28;20202;-91
2021/10/01 01:49:29;;;;;;;4.03;1.33;;;14.20;99.90;;;;;;5052652;28;20198;-91
2021/10/01 01:51:57;;;;;;;3.07;1.00;;;14.20;99.90;;;;;;5064866;28;20209;-88
2021/10/01 01:54:26;;;;;;;4.93;1.50;;;14.20;99.90;;;;;;5072378;28;20228;-85
2021/10/01 01:56:54;;;;;;;7.43;1.50;;;14.20;99.90;;;;;;5073636;28;20217;-90
2021/10/01 01:59:23;;;;;;;5.63;1.57;;;14.20;99.90;;;;;;5073840;28;20228;-94
2021/10/01 02:01:51;;;;;;;4.03;1.40;;;14.20;99.90;;;;;;5062029;28;20925;-86
2021/10/01 02:04:19;;;;;;;6.90;1.67;;;14.20;99.90;;;;;;5054443;28;20227;-89
2021/10/01 02:06:48;;;;;;;5.37;1.60;;;14.10;99.90;;;;;;5074099;28;20197;-91
2021/10/01 02:09:16;;;;;;;3.17;1.27;;;14.20;99.90;;;;;;5073633;28;20209;-91
2021/10/01 02:11:45;;;;;;;8.37;1.57;;;14.20;99.90;;;;;;5056121;28;20243;-90
2021/10/01 02:14:14;;;;;;;6.23;2.00;;;14.20;99.90;;;;;;5053366;28;20222;-91
2021/10/01 02:16:42;;;;;;;4.10;1.63;;;14.20;99.90;;;;;;5053947;28;20871;-89
2021/10/01 02:19:12;;;;;;;3.57;1.37;;;14.20;99.90;;;;;;5040413;28;20201;-88
2021/10/01 02:21:40;;;;;;;5.77;1.57;;;14.10;99.90;;;;;;5056301;28;20198;-93
2021/10/01 02:24:08;;;;;;;6.60;1.57;;;14.20;99.90;;;;;;5054522;28;20221;-90
2021/10/01 02:26:38;;;;;;;6.17;1.60;;;14.20;99.90;;;;;;5052843;28;20206;-91
2021/10/01 02:29:21;;;;;;;3.83;1.47;;;14.10;99.90;;;;;;5052469;28;20232;-91
2021/10/01 02:32:00;;;;;;;4.90;1.50;;;14.10;99.90;;;;;;5064094;28;20209;-94
2021/10/01 02:34:35;;;;;;;5.97;1.43;;;14.10;99.90;;;;;;5071723;28;20283;-92
2021/10/01 02:37:02;;;;;;;4.53;1.30;;;14.20;99.90;;;;;;5072552;28;20195;-92
2021/10/01 02:39:30;;;;;;;3.67;1.40;;;14.20;99.90;;;;;;5066911;28;20244;-94
2021/10/01 02:41:57;;;;;;;2.87;1.37;;;14.20;99.90;;;;;;5053024;28;20505;-91
2021/10/01 02:44:24;;;;;;;3.90;1.43;;;14.20;99.90;;;;;;5058666;28;20216;-88
2021/10/01 02:46:51;;;;;;;4.47;1.87;;;14.20;99.90;;;;;;5065357;28;20284;-94
2021/10/01 02:49:18;;;;;;;4.33;1.30;;;14.20;99.90;;;;;;5051827;28;20198;-92
2021/10/01 02:51:50;;;;;;;5.67;2.00;;;14.10;99.90;;;;;;5053170;28;20198;-92
2021/10/01 02:54:24;;;;;;;6.03;2.47;;;14.20;99.90;;;;;;5052146;28;20228;-91
2021/10/01 02:57:00;;;;;;;5.53;1.33;;;14.20;99.90;;;;;;5013529;28;20198;-92
2021/10/01 02:59:30;;;;;;;7.80;1.40;;;14.20;99.90;;;;;;5013295;28;20203;-93
2021/10/01 03:01:59;;;;;;;6.77;1.70;;;14.20;99.90;;;;;;5014550;28;20207;-88
2021/10/01 03:04:28;;;;;;;6.60;1.90;;;14.20;99.90;;;;;;5018539;28;20266;-89
2021/10/01 03:06:56;;;;;;;4.13;1.57;;;14.20;99.90;;;;;;5016172;28;20199;-92
2021/10/01 03:09:24;;;;;;;4.30;1.40;;;14.10;99.90;;;;;;5014141;28;20215;-91
2021/10/01 03:11:54;;;;;;;4.37;1.50;;;14.10;99.90;;;;;;5031443;28;20608;-90
2021/10/01 03:14:22;;;;;;;7.30;1.80;;;14.10;99.90;;;;;;5025297;28;20233;-92
2021/10/01 03:16:51;;;;;;;4.47;1.30;;;14.10;99.90;;;;;;5014384;28;20203;-90
2021/10/01 03:19:22;;;;;;;6.60;1.53;;;14.10;99.90;;;;;;5013728;28;20203;-90
2021/10/01 03:21:50;;;;;;;4.50;1.40;;;14.10;99.90;;;;;;5013973;28;20234;-90
2021/10/01 03:24:19;;;;;;;4.37;1.57;;;14.10;99.90;;;;;;5012668;28;20203;-91
2021/10/01 03:26:46;;;;;;;4.83;1.40;;;14.10;99.90;;;;;;5023011;28;20195;-93
2021/10/01 03:29:15;;;;;;;6.43;1.60;;;14.10;99.90;;;;;;5030216;28;20207;-91
2021/10/01 03:31:42;;;;;;;3.13;1.17;;;14.10;99.90;;;;;;5018745;28;20214;-91
2021/10/01 03:34:09;;;;;;;3.77;1.67;;;14.00;99.90;;;;;;5015920;28;20199;-89
2021/10/01 03:36:37;;;;;;;4.20;1.83;;;14.10;99.90;;;;;;5015053;28;20199;-92
2021/10/01 03:39:05;;;;;;;5.27;1.50;;;14.10;99.90;;;;;;5016672;28;20223;-91
2021/10/01 03:41:32;;;;;;;3.97;1.27;;;14.10;99.90;;;;;;5017174;28;20187;-91
2021/10/01 03:43:59;;;;;;;4.90;1.63;;;14.10;99.90;;;;;;5017345;28;20282;-91
2021/10/01 03:46:27;;;;;;;5.97;1.67;;;14.10;99.90;;;;;;5016114;28;20207;-90
2021/10/01 03:48:57;;;;;;;6.67;1.53;;;14.10;99.90;;;;;;5019509;28;20195;-90
2021/10/01 03:51:24;;;;;;;4.67;1.37;;;14.10;99.90;;;;;;5024965;28;20218;-91
2021/10/01 03:53:53;;;;;;;7.87;1.83;;;14.10;99.90;;;;;;5020692;28;20296;-91
2021/10/01 03:56:20;;;;;;;6.27;1.73;;;14.00;99.90;;;;;;5048981;28;20699;-91
2021/10/01 03:58:48;;;;;;;6.40;1.30;;;14.00;99.90;;;;;;5054979;28;20206;-88
2021/10/01 04:01:18;;;;;;;5.90;1.50;;;14.00;99.90;;;;;;5072051;28;20222;-92
2021/10/01 04:03:46;;;;;;;2.77;1.50;;;14.00;99.90;;;;;;5054529;28;20523;-90
2021/10/01 04:06:13;;;;;;;5.53;1.60;;;14.00;99.90;;;;;;5054562;28;20204;-91
2021/10/01 04:08:41;;;;;;;5.90;1.50;;;13.90;99.90;;;;;;5054325;28;20198;-90
2021/10/01 04:11:07;;;;;;;3.77;1.50;;;13.90;99.90;;;;;;5055320;28;20703;-88
2021/10/01 04:13:34;;;;;;;5.83;1.87;;;13.90;99.90;;;;;;5054957;28;20252;-91
2021/10/01 04:16:01;;;;;;;3.93;1.50;;;13.90;99.90;;;;;;5053973;28;20509;-91
2021/10/01 04:18:28;;;;;;;6.13;1.90;;;13.90;99.90;;;;;;5054606;28;20194;-92
2021/10/01 04:20:56;;;;;;;12.33;2.90;;;13.80;99.90;;;;;;5054732;28;20208;-88
2021/10/01 04:23:24;;;;;;;4.97;1.50;;;13.70;99.90;;;;;;5053939;28;20202;-91
2021/10/01 04:25:50;;;;;;;7.07;1.33;;;13.70;99.90;;;;;;5054522;28;20677;-90
2021/10/01 04:28:17;;;;;;;4.63;1.73;;;13.70;99.90;;;;;;5053019;28;20206;-90
2021/10/01 04:30:46;;;;;;;5.93;1.20;;;13.70;99.90;;;;;;5055632;28;20549;-90
2021/10/01 04:33:18;;;;;;;2.80;1.30;;;13.60;99.90;;;;;;5057351;28;20221;-91
2021/10/01 04:35:45;;;;;;;2.43;1.30;;;13.60;99.90;;;;;;5053821;28;20226;-91
2021/10/01 04:38:14;;;;;;;2.37;1.20;;;13.60;99.90;;;;;;5054151;28;20263;-91
2021/10/01 04:40:41;;;;;;;4.90;2.17;;;13.60;99.90;;;;;;5054544;28;20633;-90
2021/10/01 04:43:08;;;;;;;3.17;1.57;;;13.50;99.90;;;;;;5053407;28;20214;-91
2021/10/01 04:45:34;;;;;;;4.57;1.57;;;13.50;99.90;;;;;;5054262;28;20202;-92
2021/10/01 04:48:05;;;;;;;4.97;1.70;;;13.50;99.90;;;;;;5054139;28;20206;-89
2021/10/01 04:50:32;;;;;;;3.97;1.60;;;13.40;99.90;;;;;;5053488;28;20288;-92
2021/10/01 04:53:00;;;;;;;8.13;1.90;;;13.40;99.90;;;;;;5053735;28;20267;-92
2021/10/01 04:55:29;;;;;;;6.07;2.10;;;13.40;99.90;;;;;;5053763;28;20234;-92
2021/10/01 04:57:56;;;;;;;3.00;1.83;;;13.40;99.90;;;;;;5054067;28;20209;-92
2021/10/01 05:00:23;;;;;;;7.37;2.23;;;13.40;99.90;;;;;;5053593;28;20229;-90
2021/10/01 05:02:50;;;;;;;6.57;2.07;;;13.40;99.90;;;;;;5064724;28;20230;-90
2021/10/01 05:05:17;;;;;;;5.57;2.20;;;13.40;99.90;;;;;;5070290;28;20201;-88
2021/10/01 05:07:44;;;;;;;9.13;2.87;;;13.30;99.90;;;;;;5054171;28;20234;-89
2021/10/01 05:10:12;;;;;;;4.40;2.33;;;13.30;99.90;;;;;;5055071;28;20198;-92
2021/10/01 05:12:40;;;;;;;5.70;2.13;;;13.30;99.90;;;;;;5053884;28;20205;-87
2021/10/01 05:15:09;;;;;;;6.73;2.13;;;13.30;99.90;;;;;;5054217;28;20226;-89
2021/10/01 05:17:37;;;;;;;5.50;2.00;;;13.20;99.90;;;;;;5053896;28;20190;-91
2021/10/01 05:20:06;;;;;;;4.33;1.83;;;13.20;99.90;;;;;;5080598;28;20204;-91
2021/10/01 05:22:33;;;;;;;4.77;1.80;;;13.20;99.90;;;;;;5078088;28;20220;-92
2021/10/01 05:25:01;;;;;;;6.30;2.00;;;13.20;99.90;;;;;;5073477;28;20201;-93
2021/10/01 05:27:28;;;;;;;4.70;1.57;;;13.10;99.90;;;;;;5059220;28;20287;-88
2021/10/01 05:29:57;;;;;;;5.03;1.73;;;13.20;99.90;;;;;;5053328;28;20209;-90
2021/10/01 05:32:24;;;;;;;6.43;1.83;;;13.10;99.90;;;;;;5052179;28;20645;-91
2021/10/01 05:34:51;;;;;;;5.10;1.77;;;13.10;99.90;;;;;;5052889;28;20244;-92
2021/10/01 05:37:18;;;;;;;3.97;1.60;;;13.10;99.90;;;;;;5066731;28;20208;-89
2021/10/01 05:39:45;;;;;;;4.60;1.60;;;13.10;99.90;;;;;;5093464;28;20228;-86
2021/10/01 05:42:12;;;;;;;5.07;1.80;;;13.10;99.90;;;;;;5092802;28;20199;-91
2021/10/01 05:44:39;;;;;;;6.57;1.50;;;13.10;99.90;;;;;;5092427;28;20292;-90
2021/10/01 05:47:08;;;;;;;5.07;1.57;;;13.10;99.90;;;;;;5066724;28;20212;-90
2021/10/01 05:49:38;;;;;;;11.60;2.67;;;13.20;99.90;;;;;;5052878;28;20262;-89
2021/10/01 05:52:17;;;;;;;5.80;1.80;;;13.20;99.90;;;;;;5053102;28;20201;-89
2021/10/01 05:54:44;;;;;;;5.40;1.70;;;13.10;99.90;;;;;;5051166;28;20248;-88
2021/10/01 05:57:12;;;;;;;4.60;1.70;;;13.20;99.90;;;;;;5052084;28;20205;-84
2021/10/01 05:59:41;;;;;;;4.47;1.47;;;13.20;99.90;;;;;;5052475;28;20197;-90
2021/10/01 06:02:15;;;;;;;5.47;1.50;;;13.20;99.90;;;;;;5052603;28;20202;-88
2021/10/01 06:04:43;;;;;;;4.70;1.70;;;13.20;99.90;;;;;;5051828;28;20190;-90
2021/10/01 06:07:11;;;;;;;4.63;1.60;;;13.30;99.90;;;;;;5052109;28;20198;-91
2021/10/01 06:09:39;;;;;;;6.33;1.60;;;13.20;99.90;;;;;;5052698;28;20198;-89
2021/10/01 06:12:07;;;;;;;6.80;1.57;;;13.20;99.90;;;;;;5071609;28;20252;-89
2021/10/01 06:14:34;;;;;;;4.70;1.60;;;13.30;99.90;;;;;;5062778;28;20217;-89
2021/10/01 06:17:01;;;;;;;7.23;1.93;;;13.30;99.90;;;;;;5052114;28;20514;-92
2021/10/01 06:19:29;;;;;;;3.60;1.40;;;13.30;99.90;;;;;;5059812;28;20209;-89
2021/10/01 06:21:56;;;;;;;5.27;2.03;;;13.30;99.90;;;;;;5071931;28;20209;-90
2021/10/01 06:24:23;;;;;;;6.27;1.87;;;13.30;99.90;;;;;;5058284;28;20210;-89
2021/10/01 06:26:50;;;;;;;4.67;1.43;;;13.30;99.90;;;;;;5051322;28;20206;-88
2021/10/01 06:29:17;;;;;;;7.23;1.80;;;13.30;99.90;;;;;;5051185;28;20602;-89
2021/10/01 06:31:45;;;;;;;5.83;1.90;;;13.30;99.90;;;;;;5052128;28;20218;-88
2021/10/01 06:34:12;;;;;;;7.50;2.67;;;13.30;99.90;;;;;;5051796;28;20202;-91
2021/10/01 06:36:41;;;;;;;5.20;1.70;;;13.40;99.90;;;;;;5051657;28;20892;-89
2021/10/01 06:39:09;;;;;;;4.50;1.70;;;13.40;99.90;;;;;;5059936;28;20237;-90
2021/10/01 06:41:37;;;;;;;6.27;1.80;;;13.40;99.90;;;;;;5072054;28;20209;-90
2021/10/01 06:44:06;;;;;;;4.43;1.63;;;13.40;99.90;;;;;;5072827;28;20207;-89
2021/10/01 06:46:41;;;;;;;6.17;1.80;;;13.40;99.90;;;;;;5070798;28;20189;-88
2021/10/01 06:49:19;;;;;;;5.07;1.90;;;13.40;99.90;;;;;;5051293;28;20198;-89
2021/10/01 06:52:03;;;;;;;5.20;2.00;;;13.50;99.90;;;;;;5069551;28;20212;-88
2021/10/01 07:22:41;;;;;;;7.43;2.40;;;13.80;99.90;;;;;;5052116;28;20502;-91
2021/10/01 08:20:12;;;;;;;3.47;2.03;;;15.00;99.90;;;;;;5048339;28;20248;-91
2021/10/01 08:22:39;;;;;;;5.97;1.53;;;15.00;99.90;;;;;;5053676;28;20220;-90
2021/10/01 08:25:06;;;;;;;4.33;1.43;;;15.10;99.90;;;;;;5056420;28;20198;-93
2021/10/01 08:27:35;;;;;;;3.33;1.40;;;15.10;99.90;;;;;;5075521;28;20201;-95
2021/10/01 08:30:04;;;;;;;6.27;2.10;;;15.10;99.90;;;;;;5075788;28;20205;-93
2021/10/01 08:32:32;;;;;;;3.20;1.17;;;15.20;99.90;;;;;;5063795;28;20308;-93
2021/10/01 08:34:59;;;;;;;4.53;1.63;;;15.30;99.90;;;;;;5054483;28;20198;-89
2021/10/01 08:37:29;;;;;;;3.50;1.27;;;15.30;99.90;;;;;;5054826;28;20253;-95
2021/10/01 08:39:56;;;;;;;6.20;1.80;;;15.30;99.90;;;;;;5054909;28;20232;-91
2021/10/01 08:42:24;;;;;;;4.73;1.40;;;15.30;99.90;;;;;;5055054;28;20209;-90
2021/10/01 08:44:51;;;;;;;4.93;1.60;;;15.30;99.90;;;;;;5055391;28;20202;-90
2021/10/01 08:47:20;;;;;;;5.55;1.70;;;15.30;99.90;;;;;;5054570;28;20210;-89
2021/10/01 08:49:50;;;;;;;3.47;1.63;;;15.30;99.90;;;;;;5053455;28;20790;-94
2021/10/01 08:52:20;;;;;;;2.67;1.63;;;15.30;99.90;;;;;;5054614;28;20210;-93
2021/10/01 08:54:48;;;;;;;3.10;1.67;;;15.30;99.90;;;;;;5057696;28;20241;-91
2021/10/01 08:57:15;;;;;;;3.63;1.73;;;15.30;99.90;;;;;;5067061;28;20229;-90
2021/10/01 08:59:42;;;;;;;6.30;2.07;;;15.40;99.90;;;;;;5073995;28;20205;-90
2021/10/01 09:02:10;;;;;;;3.07;1.40;;;15.40;99.90;;;;;;5073895;28;20613;-88
2021/10/01 09:04:38;;;;;;;6.37;1.67;;;15.40;99.90;;;;;;5073372;28;20509;-94
2021/10/01 09:07:05;;;;;;;4.13;1.70;;;15.40;99.90;;;;;;5054153;28;20686;-88
2021/10/01 09:09:36;;;;;;;5.50;1.63;;;15.50;99.90;;;;;;5054102;28;20206;-90
2021/10/01 09:12:04;;;;;;;7.30;1.80;;;15.60;99.90;;;;;;5054054;28;20583;-90
2021/10/01 09:14:41;;;;;;;7.35;1.58;;;15.60;99.90;;;;;;5052886;28;20213;-88
2021/10/01 09:17:11;;;;;;;4.60;1.40;;;15.70;99.90;;;;;;5052346;28;20222;-91
2021/10/01 09:19:40;;;;;;;3.33;1.50;;;15.70;99.90;;;;;;5053279;28;20202;-88
2021/10/01 09:22:07;;;;;;;3.47;1.67;;;15.60;99.90;;;;;;5053652;28;20206;-91
2021/10/01 09:24:41;;;;;;;2.70;1.57;;;15.50;99.90;;;;;;5053604;28;20202;-93
2021/10/01 09:27:09;;;;;;;5.87;1.70;;;15.50;99.90;;;;;;5054193;28;20213;-89
2021/10/01 09:29:38;;;;;;;5.20;1.53;;;15.40;99.90;;;;;;5053969;28;20297;-95
2021/10/01 09:32:10;;;;;;;3.27;2.00;;;15.40;99.90;;;;;;5058567;28;20228;-96
2021/10/01 09:34:40;;;;;;;5.50;1.57;;;15.40;99.90;;;;;;5093526;28;20207;-94
2021/10/01 09:37:09;;;;;;;2.83;1.23;;;15.40;99.90;;;;;;5088298;28;20607;-87
2021/10/01 09:39:38;;;;;;;5.17;1.60;;;15.40;99.90;;;;;;5094800;28;20220;-92
2021/10/01 09:42:16;;;;;;;4.40;1.40;;;15.40;99.90;;;;;;5094651;28;20197;-93
2021/10/01 09:44:49;;;;;;;5.30;1.87;;;15.40;99.90;;;;;;5094900;28;20201;-94
2021/10/01 09:47:17;;;;;;;4.73;1.43;;;15.40;99.90;;;;;;5094500;28;20196;-90
2021/10/01 09:49:46;;;;;;;3.53;1.65;;;15.40;99.90;;;;;;5094647;28;20209;-92
2021/10/01 09:52:14;;;;;;;3.47;1.73;;;15.50;99.90;;;;;;5062132;28;20225;-92
2021/10/01 09:54:41;;;;;;;5.13;1.53;;;15.50;99.90;;;;;;5066405;28;20209;-94
2021/10/01 09:57:10;;;;;;;5.00;2.00;;;15.50;99.90;;;;;;5073244;28;20221;-93
2021/10/01 09:59:37;;;;;;;6.22;1.50;;;15.50;99.90;;;;;;5055807;28;20202;-94
2021/10/01 10:02:08;;;;;;;4.47;1.75;;;15.40;99.90;;;;;;5053947;28;20198;-94
2021/10/01 10:04:38;;;;;;;6.53;1.67;;;15.40;99.90;;;;;;5051798;28;20208;-91
2021/10/01 10:07:11;;;;;;;3.73;1.93;;;15.40;99.90;;;;;;5052092;28;20208;-89
2021/10/01 10:09:40;;;;;;;4.47;1.70;;;15.30;99.90;;;;;;5051144;28;20214;-86
2021/10/01 10:12:09;;;;;;;5.07;1.83;;;15.30;99.90;;;;;;5051570;28;20214;-90
2021/10/01 10:14:42;;;;;;;5.23;1.70;;;15.20;99.90;;;;;;5051885;28;20827;-91
2021/10/01 10:17:13;;;;;;;6.28;1.92;;;15.00;99.90;;;;;;5050411;28;20213;-95
2021/10/01 10:19:40;;;;;;;3.73;1.90;;;15.00;99.90;;;;;;5053472;28;20206;-92
2021/10/01 10:22:09;;;;;;;4.13;1.97;;;14.90;99.90;;;;;;5080055;23;20243;-92
2021/10/01 10:24:36;;;;;;;2.78;1.85;;;15.00;99.90;;;;;;5111995;27;20210;-93
2021/10/01 10:27:03;;;;;;;4.30;1.97;;;14.90;99.90;;;;;;5112063;28;20192;-93
2021/10/01 10:29:31;;;;;;;6.63;2.30;;;15.00;99.90;;;;;;5110523;28;20204;-88
2021/10/01 10:31:58;;;;;;;5.83;1.90;;;15.00;99.90;;;;;;5091913;28;20243;-92
2021/10/01 10:34:27;;;;;;;5.63;1.93;;;14.90;99.90;;;;;;5091790;28;20196;-92
2021/10/01 10:37:04;;;;;;;4.30;1.90;;;15.00;99.90;;;;;;5091660;28;20326;-91
2021/10/01 10:39:44;;;;;;;5.60;2.27;;;15.00;99.90;;;;;;5091829;28;20228;-91
2021/10/01 10:42:32;;;;;;;6.43;1.83;;;14.90;99.90;;;;;;5091516;28;20203;-88
2021/10/01 10:45:05;;;;;;;4.23;2.27;;;14.90;99.90;;;;;;5091886;28;20188;-87
2021/10/01 10:47:53;;;;;;;4.53;1.80;;;14.80;99.90;;;;;;5105285;28;20207;-87
2021/10/01 10:50:50;;;;;;;5.67;2.53;;;14.70;99.90;;;;;;5110494;28;20579;-88
2021/10/01 10:53:24;;;;;;;3.77;1.97;;;14.70;99.90;;;;;;5064639;28;20204;-90
2021/10/01 10:56:19;;;;;;;4.47;2.20;;;14.70;99.90;;;;;;5110939;28;20211;-87
2021/10/01 10:58:49;;;;;;;5.90;2.30;;;14.70;99.90;;;;;;5097655;28;20299;-83
2021/10/01 11:01:36;;;;;;;4.27;2.70;;;14.70;99.90;;;;;;5090128;28;20219;-85
2021/10/01 11:04:38;;;;;;;4.30;2.07;;;14.60;99.90;;;;;;5089969;28;20200;-85
2021/10/01 11:07:06;;;;;;;5.47;2.27;;;14.60;99.90;;;;;;5089926;28;20204;-89
2021/10/01 11:09:36;;;;;;;6.27;2.63;;;14.60;99.90;;;;;;5072058;28;20291;-89
2021/10/01 11:12:24;;;;;;;5.93;2.53;;;14.60;99.90;;;;;;5090047;28;20201;-87
2021/10/01 11:15:14;;;;;;;6.83;2.67;;;14.60;99.90;;;;;;5089359;28;20214;-87
2021/10/01 11:17:41;;;;;;;6.90;2.70;;;14.50;99.90;;;;;;5090167;28;20341;-88
2021/10/01 11:20:08;;;;;;;4.87;2.80;;;14.50;99.90;;;;;;5090891;28;20205;-88
2021/10/01 11:22:38;;;;;;;6.13;3.30;;;14.50;99.90;;;;;;5088809;28;20224;-88
2021/10/01 11:25:14;;;;;;;5.17;2.90;;;14.50;99.90;;;;;;5091236;28;20205;-87
2021/10/01 11:28:03;;;;;;;6.40;3.30;;;14.50;99.90;;;;;;5090855;28;20204;-89
2021/10/01 11:30:37;;;;;;;8.70;3.80;;;14.40;99.90;;;;;;5084650;28;20204;-92
2021/10/01 11:33:08;;;;;;;6.47;3.60;;;14.40;99.90;;;;;;5090690;28;20626;-88
2021/10/01 11:35:45;;;;;;;5.63;3.50;;;14.50;99.90;;;;;;5090637;28;20196;-89
2021/10/01 11:38:24;;;;;;;7.17;4.43;;;14.50;99.90;;;;;;5119662;28;20256;-90
2021/10/01 11:41:07;;;;;;;5.83;4.07;;;14.50;99.90;;;;;;5120484;28;20660;-92
2021/10/01 11:43:50;;;;;;;6.33;4.20;;;14.40;99.90;;;;;;5109587;28;20207;-89
2021/10/01 11:46:32;;;;;;;8.90;4.20;;;14.40;99.90;;;;;;5106352;28;20219;-92
2021/10/01 11:49:03;;;;;;;4.00;3.70;;;14.40;99.90;;;;;;5110499;28;20203;-90
2021/10/01 11:51:30;;;;;;;7.13;3.77;;;14.40;99.90;;;;;;5110078;28;20212;-92
2021/10/01 11:54:13;;;;;;;6.07;3.70;;;14.40;99.90;;;;;;5092934;28;20604;-91
2021/10/01 11:56:41;;;;;;;8.80;4.43;;;14.30;99.90;;;;;;5091230;28;20861;-90
2021/10/01 11:59:09;;;;;;;5.33;3.50;;;14.40;99.90;;;;;;5091212;28;20234;-91
2021/10/01 12:01:36;;;;;;;5.33;4.07;;;14.40;99.90;;;;;;5094843;28;20204;-89
2021/10/01 12:04:03;;;;;;;7.10;4.20;;;14.40;99.90;;;;;;5093671;28;20201;-88
2021/10/01 12:06:35;;;;;;;6.87;4.33;;;14.40;99.90;;;;;;5076743;28;20215;-91
2021/10/01 12:09:04;;;;;;;7.63;4.63;;;14.40;99.90;;;;;;5110876;28;20258;-91
2021/10/01 12:11:33;;;;;;;9.50;4.30;;;14.40;99.90;;;;;;5114862;28;20885;-92
2021/10/01 12:14:12;;;;;;;5.00;3.53;;;14.40;99.90;;;;;;5113094;28;20208;-92
2021/10/01 12:16:39;;;;;;;9.17;3.83;;;14.40;99.90;;;;;;5114575;28;20203;-90
2021/10/01 12:19:08;;;;;;;6.13;3.57;;;14.50;99.90;;;;;;5108733;28;20226;-93
2021/10/01 12:21:36;;;;;;;5.73;4.17;;;14.50;99.90;;;;;;5106176;28;20210;-92
2021/10/01 12:24:09;;;;;;;8.93;4.63;;;14.60;99.90;;;;;;5114087;28;20204;-91
2021/10/01 12:26:38;;;;;;;9.07;3.97;;;14.70;99.90;;;;;;5113815;28;20280;-90
2021/10/01 12:29:10;;;;;;;7.13;3.90;;;14.90;99.90;;;;;;5113896;28;20223;-91
2021/10/01 12:31:45;;;;;;;9.87;3.90;;;14.90;99.90;;;;;;5112656;28;20295;-88
2021/10/01 12:34:21;;;;;;;5.97;3.73;;;14.90;99.90;;;;;;5093975;28;20200;-91
2021/10/01 12:36:50;;;;;;;8.53;4.30;;;15.00;99.90;;;;;;5086587;27;20220;-89
2021/10/01 12:39:18;;;;;;;7.90;3.60;;;15.00;99.90;;;;;;5133950;27;20213;-85
2021/10/01 12:41:45;;;;;;;8.87;3.73;;;14.90;99.90;;;;;;5135168;27;20875;-87
2021/10/01 12:44:16;;;;;;;13.20;4.53;;;14.90;99.90;;;;;;5122000;27;20199;-88
2021/10/01 12:46:46;;;;;;;9.87;3.73;;;14.90;99.90;;;;;;5095735;28;20291;-91
2021/10/01 12:49:15;;;;;;;10.33;4.47;;;14.90;99.90;;;;;;5095226;28;20312;-87
2021/10/01 12:51:43;;;;;;;8.50;3.53;;;14.90;99.90;;;;;;5094819;28;20600;-89
2021/10/01 12:54:24;;;;;;;6.40;3.97;;;14.90;99.90;;;;;;5106549;27;20226;-94
2021/10/01 12:57:10;;;;;;;6.30;3.70;;;14.90;99.90;;;;;;5136885;27;20196;-95
2021/10/01 12:59:37;;;;;;;7.57;3.60;;;14.90;99.90;;;;;;5110773;27;20224;-93
2021/10/01 13:02:11;;;;;;;9.17;4.30;;;14.90;99.90;;;;;;5092828;28;20267;-91
2021/10/01 13:04:46;;;;;;;10.07;4.47;;;14.80;99.90;;;;;;5092793;28;20201;-92
2021/10/01 13:07:25;;;;;;;9.03;4.67;;;14.80;99.90;;;;;;5093089;28;20204;-89
2021/10/01 13:09:54;;;;;;;10.00;4.13;;;14.80;99.90;;;;;;5093153;28;20830;-91
2021/10/01 13:12:47;;;;;;;6.57;4.17;;;14.90;99.90;;;;;;5090601;28;20204;-95
2021/10/01 13:15:23;;;;;;;7.90;4.67;;;14.90;99.90;;;;;;5059339;28;20207;-91
2021/10/01 13:18:16;;;;;;;7.03;4.33;;;14.90;99.90;;;;;;5093391;28;20204;-95
2021/10/01 13:20:46;;;;;;;11.77;4.70;;;14.90;99.90;;;;;;5092872;28;20267;-92
2021/10/01 13:23:15;;;;;;;8.07;5.07;;;15.00;99.90;;;;;;5092878;28;20289;-92
2021/10/01 13:25:48;;;;;;;7.07;4.50;;;14.90;99.90;;;;;;5108311;28;20216;-92
2021/10/01 13:28:18;;;;;;;7.37;5.03;;;14.90;99.90;;;;;;5113496;28;20199;-93
2021/10/01 13:30:46;;;;;;;8.70;4.30;;;14.90;99.90;;;;;;5113134;28;20199;-93
2021/10/01 13:33:15;;;;;;;7.83;4.57;;;14.80;99.90;;;;;;5111027;28;20204;-88
2021/10/01 13:35:42;;;;;;;10.30;4.10;;;14.80;99.90;;;;;;5092605;28;20579;-91
2021/10/01 13:38:10;;;;;;;5.90;4.10;;;14.80;99.90;;;;;;5092732;28;20234;-90
2021/10/01 13:40:39;;;;;;;4.97;3.83;;;14.80;99.90;;;;;;5092649;28;20225;-89
2021/10/01 13:43:06;;;;;;;9.20;4.13;;;14.80;99.90;;;;;;5112415;28;20218;-87
2021/10/01 13:45:33;;;;;;;5.93;3.87;;;14.80;99.90;;;;;;5111855;28;20208;-87
2021/10/01 13:48:01;;;;;;;8.13;4.60;;;14.80;99.90;;;;;;5112471;28;20912;-88
2021/10/01 13:50:29;;;;;;;10.17;3.77;;;14.80;99.90;;;;;;5110801;28;20215;-87
2021/10/01 13:52:56;;;;;;;7.57;3.53;;;14.80;99.90;;;;;;5113054;28;20203;-89
2021/10/01 13:55:23;;;;;;;7.37;3.90;;;14.80;99.90;;;;;;5111966;28;20405;-89
2021/10/01 13:57:50;;;;;;;8.07;3.63;;;14.80;99.90;;;;;;5111958;28;20230;-90
2021/10/01 14:00:19;;;;;;;4.73;3.50;;;14.80;99.90;;;;;;5093825;28;20205;-90
2021/10/01 14:02:46;;;;;;;5.13;3.30;;;14.70;99.90;;;;;;5092467;28;20224;-87
2021/10/01 14:05:14;;;;;;;7.47;3.70;;;14.70;99.90;;;;;;5092018;28;20227;-86
2021/10/01 14:07:45;;;;;;;9.27;3.37;;;14.70;99.90;;;;;;5093374;28;20525;-88
2021/10/01 14:10:14;;;;;;;9.17;3.87;;;14.70;99.90;;;;;;5113147;28;20571;-89
2021/10/01 14:12:41;;;;;;;7.67;4.17;;;14.60;99.90;;;;;;5113031;28;20202;-90
2021/10/01 14:15:10;;;;;;;6.10;4.23;;;14.60;99.90;;;;;;5112925;28;20215;-88
2021/10/01 14:17:37;;;;;;;8.77;3.87;;;14.60;99.90;;;;;;5114227;27;20223;-88
2021/10/01 14:20:06;;;;;;;9.47;3.77;;;14.60;99.90;;;;;;5107266;28;20623;-87
2021/10/01 14:22:33;;;;;;;7.13;4.23;;;14.60;99.90;;;;;;5111782;28;20234;-88
2021/10/01 14:25:02;;;;;;;6.13;4.30;;;14.60;99.90;;;;;;5101395;28;20208;-87